createdAt,value
2019-02-27T00:01:08.055Z,61.50
2019-02-27T00:03:40.140Z,60.83
2019-02-27T00:06:12.934Z,62.36
2019-02-27T00:08:46.850Z,61.93
2019-02-27T00:11:18.854Z,61.69
2019-02-27T00:13:51.126Z,60.91
2019-02-27T00:16:23.211Z,61.43
2019-02-27T00:18:58.670Z,61.77
2019-02-27T00:21:28.005Z,62.18
2019-02-27T00:23:59.201Z,63.41
2019-02-27T00:26:31.845Z,63.27
2019-02-27T00:29:03.262Z,62.95
2019-02-27T00:31:34.439Z,63.74
2019-02-27T00:34:05.938Z,63.21
2019-02-27T00:36:37.799Z,62.42
2019-02-27T00:39:09.153Z,63.69
2019-02-27T00:41:43.118Z,63.34
2019-02-27T00:44:14.578Z,63.29
2019-02-27T00:46:46.366Z,62.86
2019-02-27T00:49:18.178Z,62.75
2019-02-27T00:51:49.955Z,62.49
2019-02-27T00:54:21.252Z,62.97
2019-02-27T00:56:53.228Z,61.93
2019-02-27T00:59:24.970Z,63.38
2019-02-27T01:01:57.565Z,64.01
2019-02-27T01:04:29.842Z,65.22
2019-02-27T01:07:01.075Z,65.51
2019-02-27T01:09:33.049Z,65.24
2019-02-27T01:12:04.327Z,64.95
2019-02-27T01:14:37.081Z,65.02
2019-02-27T01:17:09.096Z,65.21
2019-02-27T01:19:42.650Z,64.98
2019-02-27T01:22:13.937Z,65.39
2019-02-27T01:24:45.109Z,65.19
2019-02-27T01:27:17.036Z,65.40
2019-02-27T01:29:50.758Z,65.51
2019-02-27T01:32:21.378Z,66.08
2019-02-27T01:34:53.049Z,66.30
2019-02-27T01:37:31.340Z,66.51
2019-02-27T01:40:00.278Z,66.40
2019-02-27T01:42:32.921Z,66.61
2019-02-27T01:45:07.187Z,66.98
2019-02-27T01:47:39.013Z,68.61
2019-02-27T01:50:33.841Z,68.36
2019-02-27T01:53:07.419Z,68.01
2019-02-27T01:55:40.994Z,67.39
2019-02-27T01:58:12.850Z,67.64
2019-02-27T02:00:44.087Z,67.93
2019-02-27T02:03:16.055Z,67.98
2019-02-27T02:05:48.106Z,67.45
2019-02-27T02:08:20.126Z,67.72
2019-02-27T02:10:54.126Z,67.33
2019-02-27T02:13:50.330Z,67.18
2019-02-27T02:16:54.708Z,67.30
2019-02-27T02:19:53.990Z,66.69
2019-02-27T02:23:14.304Z,68.30
2019-02-27T02:26:22.288Z,68.01
2019-02-27T02:29:24.270Z,68.43
2019-02-27T02:32:17.109Z,68.23
2019-02-27T02:35:26.730Z,68.10
2019-02-27T02:38:54.088Z,68.09
2019-02-27T02:41:59.956Z,68.60
2019-02-27T02:45:15.332Z,68.43
2019-02-27T02:48:31.072Z,68.47
2019-02-27T02:51:44.724Z,68.56
2019-02-27T02:54:38.137Z,68.48
2019-02-27T02:57:57.840Z,68.50
2019-02-27T03:01:15.211Z,68.64
2019-02-27T03:04:37.256Z,68.46
2019-02-27T03:07:26.326Z,68.17
2019-02-27T03:10:35.643Z,68.42
2019-02-27T03:13:31.366Z,68.92
2019-02-27T03:16:24.787Z,69.54
2019-02-27T03:19:41.224Z,69.54
2019-02-27T03:22:47.852Z,69.17
2019-02-27T03:25:50.340Z,69.88
2019-02-27T03:29:16.972Z,69.66
2019-02-27T03:32:17.220Z,69.60
2019-02-27T03:35:28.014Z,69.64
2019-02-27T03:38:23.855Z,69.67
2019-02-27T03:41:27.732Z,69.63
2019-02-27T03:44:27.586Z,69.83
2019-02-27T03:47:29.683Z,69.74
2019-02-27T03:50:29.574Z,70.50
2019-02-27T03:53:35.094Z,70.46
2019-02-27T03:57:18.918Z,70.01
2019-02-27T04:00:19.296Z,70.29
2019-02-27T04:03:26.461Z,69.82
2019-02-27T04:06:40.756Z,69.98
2019-02-27T04:09:12.244Z,70.65
2019-02-27T04:11:44.202Z,71.11
2019-02-27T04:14:32.753Z,70.65
2019-02-27T04:17:07.030Z,70.26
2019-02-27T04:19:39.254Z,70.05
2019-02-27T04:22:11.111Z,69.95
2019-02-27T04:24:43.089Z,69.51
2019-02-27T04:27:19.971Z,70.80
2019-02-27T04:29:49.416Z,71.22
2019-02-27T04:32:21.789Z,71.49
2019-02-27T04:34:52.958Z,71.55
2019-02-27T04:37:24.164Z,71.44
2019-02-27T04:39:55.959Z,71.61
2019-02-27T04:42:28.767Z,71.25
2019-02-27T04:44:59.963Z,70.81
2019-02-27T04:47:31.401Z,70.87
2019-02-27T04:50:02.951Z,71.08
2019-02-27T04:52:34.364Z,71.19
2019-02-27T04:55:06.015Z,71.31
2019-02-27T04:57:37.210Z,70.90
2019-02-27T05:00:09.315Z,71.22
2019-02-27T05:02:42.573Z,71.39
2019-02-27T05:05:15.304Z,71.56
2019-02-27T05:07:54.097Z,71.51
2019-02-27T05:10:23.318Z,71.72
2019-02-27T05:12:55.905Z,71.41
2019-02-27T05:15:27.793Z,71.67
2019-02-27T05:17:59.058Z,71.60
2019-02-27T05:20:30.894Z,71.70
2019-02-27T05:23:02.079Z,71.64
2019-02-27T05:25:34.133Z,71.60
2019-02-27T05:28:06.013Z,71.27
2019-02-27T05:30:37.786Z,71.09
2019-02-27T05:33:09.106Z,70.55
2019-02-27T05:35:42.538Z,70.56
2019-02-27T05:38:13.991Z,70.74
2019-02-27T05:40:45.229Z,71.18
2019-02-27T05:43:17.114Z,71.54
2019-02-27T05:45:49.094Z,72.13
2019-02-27T05:48:21.024Z,72.12
2019-02-27T05:50:52.988Z,71.92
2019-02-27T05:53:24.921Z,71.52
2019-02-27T05:55:56.113Z,71.43
2019-02-27T05:58:28.368Z,71.54
2019-02-27T06:01:02.099Z,72.38
2019-02-27T06:03:33.180Z,72.52
2019-02-27T06:06:06.818Z,72.67
2019-02-27T06:08:40.004Z,73.80
2019-02-27T06:11:12.778Z,73.36
2019-02-27T06:13:45.040Z,73.88
2019-02-27T06:16:16.990Z,73.57
2019-02-27T06:18:48.360Z,73.79
2019-02-27T06:21:20.197Z,73.57
2019-02-27T06:23:51.960Z,73.84
2019-02-27T06:26:24.769Z,73.42
2019-02-27T06:28:55.974Z,73.47
2019-02-27T06:31:28.851Z,73.33
2019-02-27T06:34:00.258Z,73.09
2019-02-27T06:36:31.604Z,73.57
2019-02-27T06:39:04.646Z,73.85
2019-02-27T06:41:35.953Z,74.41
2019-02-27T06:44:07.968Z,74.48
2019-02-27T06:46:39.228Z,74.35
2019-02-27T06:49:11.077Z,74.25
2019-02-27T06:51:43.860Z,74.64
2019-02-27T06:54:18.492Z,74.80
2019-02-27T06:56:51.054Z,75.07
2019-02-27T06:59:25.219Z,74.55
2019-02-27T07:01:59.095Z,74.78
2019-02-27T07:04:30.445Z,74.37
2019-02-27T07:07:07.053Z,73.78
2019-02-27T07:09:40.532Z,74.35
2019-02-27T07:12:12.848Z,73.63
2019-02-27T07:14:46.116Z,74.81
2019-02-27T07:17:19.110Z,74.25
2019-02-27T07:19:52.104Z,73.39
2019-02-27T07:22:25.114Z,73.30
2019-02-27T07:24:58.105Z,72.85
2019-02-27T07:27:31.274Z,72.30
2019-02-27T07:30:04.897Z,71.78
2019-02-27T07:32:37.466Z,71.25
2019-02-27T07:35:11.347Z,70.82
2019-02-27T07:37:47.233Z,70.38
2019-02-27T07:40:17.112Z,71.07
2019-02-27T07:42:51.888Z,71.84
2019-02-27T07:45:25.419Z,71.43
2019-02-27T07:47:58.657Z,70.99
2019-02-27T07:50:29.928Z,70.52
2019-02-27T07:53:03.275Z,70.65
2019-02-27T07:55:35.376Z,70.26
2019-02-27T07:58:07.371Z,69.96
2019-02-27T08:00:40.409Z,69.86
2019-02-27T08:03:13.370Z,69.59
2019-02-27T08:05:46.423Z,69.54
2019-02-27T08:08:23.305Z,69.35
2019-02-27T08:10:55.202Z,69.61
2019-02-27T08:13:29.710Z,69.29
2019-02-27T08:16:04.249Z,70.37
2019-02-27T08:18:37.661Z,69.65
2019-02-27T08:21:10.407Z,68.70
2019-02-27T08:23:43.544Z,68.10
2019-02-27T08:26:18.455Z,67.18
2019-02-27T08:28:52.203Z,65.23
2019-02-27T08:31:27.914Z,64.65
2019-02-27T08:33:58.427Z,64.82
2019-02-27T08:36:30.223Z,62.38
2019-02-27T08:39:06.221Z,62.14
2019-02-27T08:41:37.517Z,61.01
2019-02-27T08:44:08.800Z,60.75
2019-02-27T08:46:42.295Z,59.52
2019-02-27T08:49:18.803Z,57.47
2019-02-27T08:51:50.670Z,57.69
2019-02-27T08:54:22.560Z,51.98
2019-02-27T08:56:54.417Z,48.73
2019-02-27T08:59:28.377Z,47.25
2019-02-27T09:02:01.974Z,46.75
2019-02-27T09:04:33.484Z,43.91
2019-02-27T09:07:07.577Z,46.05
2019-02-27T09:09:40.856Z,44.24
2019-02-27T09:12:14.063Z,42.72
2019-02-27T09:14:46.857Z,42.91
2019-02-27T09:17:19.656Z,42.95
2019-02-27T09:19:59.360Z,38.83
2019-02-27T09:22:33.861Z,39.99
2019-02-27T09:25:07.855Z,39.69
2019-02-27T09:27:40.904Z,40.03
2019-02-27T09:30:14.834Z,38.12
2019-02-27T09:32:46.770Z,39.62
2019-02-27T09:35:19.969Z,38.29
2019-02-27T09:37:52.704Z,38.55
2019-02-27T09:40:29.414Z,39.53
2019-02-27T09:43:03.794Z,39.17
2019-02-27T09:45:36.693Z,37.80
2019-02-27T09:48:11.449Z,36.04
2019-02-27T09:50:48.444Z,36.00
2019-02-27T09:53:18.869Z,32.85
2019-02-27T09:55:54.377Z,33.18
2019-02-27T09:58:26.298Z,31.80
2019-02-27T10:01:03.675Z,33.78
2019-02-27T10:03:37.314Z,32.70
2019-02-27T10:06:11.087Z,31.92
2019-02-27T10:08:43.866Z,32.58
2019-02-27T10:11:19.542Z,31.54
2019-02-27T10:13:53.007Z,29.59
2019-02-27T10:16:26.663Z,30.23
2019-02-27T10:18:59.114Z,30.10
2019-02-27T10:21:30.411Z,29.91
2019-02-27T10:24:04.869Z,29.77
2019-02-27T10:26:35.983Z,30.55
2019-02-27T10:29:08.023Z,27.78
2019-02-27T10:31:43.758Z,23.24
2019-02-27T10:34:17.583Z,26.60
2019-02-27T10:36:52.130Z,26.87
2019-02-27T10:39:24.945Z,27.45
2019-02-27T10:41:56.146Z,25.89
2019-02-27T10:44:27.529Z,26.76
2019-02-27T10:47:00.048Z,26.05
2019-02-27T10:49:33.206Z,26.08
2019-02-27T10:52:07.397Z,25.11
2019-02-27T10:54:40.281Z,26.69
2019-02-27T10:57:13.021Z,25.29
2019-02-27T10:59:46.069Z,25.07
2019-02-27T11:02:19.817Z,22.61
2019-02-27T11:04:52.633Z,23.91
2019-02-27T11:07:25.667Z,25.32
2019-02-27T11:10:00.690Z,22.84
2019-02-27T11:12:33.083Z,25.49
2019-02-27T11:15:08.180Z,23.04
2019-02-27T11:17:40.413Z,23.72
2019-02-27T11:20:13.142Z,20.89
2019-02-27T11:22:46.296Z,22.29
2019-02-27T11:25:22.501Z,22.45
2019-02-27T11:27:54.134Z,22.37
2019-02-27T11:30:28.928Z,21.03
2019-02-27T11:33:00.115Z,21.76
2019-02-27T11:35:33.317Z,19.60
2019-02-27T11:38:05.970Z,20.59
2019-02-27T11:40:41.539Z,21.41
2019-02-27T11:43:11.260Z,20.97
2019-02-27T11:45:43.609Z,20.54
2019-02-27T11:48:15.182Z,19.76
2019-02-27T11:50:50.975Z,19.64
2019-02-27T11:53:24.234Z,19.87
2019-02-27T11:55:55.567Z,19.79
2019-02-27T11:58:29.222Z,19.47
2019-02-27T12:01:03.230Z,19.72
2019-02-27T12:03:36.474Z,19.89
2019-02-27T12:06:11.928Z,18.98
2019-02-27T12:08:44.049Z,18.86
2019-02-27T12:11:16.481Z,18.73
2019-02-27T12:13:49.381Z,21.40
2019-02-27T12:16:22.564Z,20.59
2019-02-27T12:18:55.364Z,19.46
2019-02-27T12:21:28.360Z,21.42
2019-02-27T12:24:01.434Z,22.63
2019-02-27T12:26:34.421Z,23.40
2019-02-27T12:29:08.086Z,20.98
2019-02-27T12:31:40.567Z,21.22
2019-02-27T12:34:16.906Z,24.37
2019-02-27T12:36:49.938Z,26.47
2019-02-27T12:39:21.831Z,26.91
2019-02-27T12:41:55.461Z,27.57
2019-02-27T12:44:28.375Z,27.11
2019-02-27T12:47:05.561Z,27.11
2019-02-27T12:49:37.031Z,24.28
2019-02-27T12:52:12.113Z,26.05
2019-02-27T12:54:43.639Z,23.07
2019-02-27T12:57:18.263Z,25.79
2019-02-27T12:59:50.353Z,26.36
2019-02-27T13:02:35.294Z,26.83
2019-02-27T13:05:03.393Z,26.65
2019-02-27T13:07:35.587Z,28.28
2019-02-27T13:10:13.322Z,28.81
2019-02-27T13:12:49.230Z,30.26
2019-02-27T13:15:24.670Z,30.20
2019-02-27T13:17:58.856Z,29.48
2019-02-27T13:20:30.132Z,30.06
2019-02-27T13:23:05.164Z,30.35
2019-02-27T13:25:37.119Z,29.46
2019-02-27T13:28:09.808Z,30.11
2019-02-27T13:30:43.761Z,29.96
2019-02-27T13:33:17.969Z,29.78
2019-02-27T13:35:49.656Z,30.15
2019-02-27T13:38:24.431Z,30.38
2019-02-27T13:40:55.694Z,30.56
2019-02-27T13:43:30.184Z,30.59
2019-02-27T13:46:02.344Z,29.28
2019-02-27T13:48:34.132Z,30.80
2019-02-27T13:51:06.702Z,31.07
2019-02-27T13:53:37.922Z,31.21
2019-02-27T13:56:09.669Z,30.70
2019-02-27T13:58:44.587Z,30.91
2019-02-27T14:01:16.007Z,30.09
2019-02-27T14:03:49.888Z,30.82
2019-02-27T14:06:22.916Z,30.35
2019-02-27T14:08:54.346Z,30.17
2019-02-27T14:11:26.867Z,30.40
2019-02-27T14:14:00.518Z,29.42
2019-02-27T14:16:34.743Z,30.47
2019-02-27T14:19:07.900Z,29.70
2019-02-27T14:21:41.285Z,30.73
2019-02-27T14:24:20.205Z,31.02
2019-02-27T14:26:50.341Z,30.19
2019-02-27T14:29:22.956Z,31.17
2019-02-27T14:31:56.597Z,31.05
2019-02-27T14:34:28.977Z,30.64
2019-02-27T14:37:01.078Z,30.55
2019-02-27T14:39:35.383Z,30.45
2019-02-27T14:42:08.560Z,31.15
2019-02-27T14:44:41.134Z,30.66
2019-02-27T14:47:16.407Z,30.39
2019-02-27T14:49:49.300Z,29.19
2019-02-27T14:52:24.793Z,29.59
2019-02-27T14:54:55.976Z,28.75
2019-02-27T14:57:28.379Z,29.21
2019-02-27T15:00:05.662Z,29.21
2019-02-27T15:02:37.832Z,30.16
2019-02-27T15:05:09.272Z,30.47
2019-02-27T15:07:41.869Z,30.89
2019-02-27T15:10:16.162Z,30.88
2019-02-27T15:12:54.321Z,29.04
2019-02-27T15:15:26.886Z,28.52
2019-02-27T15:17:59.393Z,28.35
2019-02-27T15:20:31.403Z,27.83
2019-02-27T15:23:05.440Z,27.41
2019-02-27T15:25:42.217Z,27.18
2019-02-27T15:28:14.148Z,26.58
2019-02-27T15:30:47.434Z,25.75
2019-02-27T15:33:19.270Z,26.42
2019-02-27T15:35:55.140Z,26.79
2019-02-27T15:38:24.209Z,26.46
2019-02-27T15:40:56.188Z,28.24
2019-02-27T15:43:28.406Z,29.19
2019-02-27T15:46:00.751Z,30.08
2019-02-27T15:48:33.464Z,30.87
2019-02-27T15:51:07.295Z,32.39
2019-02-27T15:53:41.371Z,32.95
2019-02-27T15:56:14.344Z,33.84
2019-02-27T15:58:47.339Z,35.18
2019-02-27T16:01:20.336Z,33.35
2019-02-27T16:03:52.842Z,35.04
2019-02-27T16:06:25.655Z,36.47
2019-02-27T16:08:58.239Z,37.56
2019-02-27T16:11:30.766Z,37.86
2019-02-27T16:14:09.161Z,38.34
2019-02-27T16:16:37.847Z,38.56
2019-02-27T16:19:14.804Z,39.67
2019-02-27T16:21:46.366Z,40.21
2019-02-27T16:24:19.586Z,40.71
2019-02-27T16:26:52.587Z,41.17
2019-02-27T16:29:24.512Z,42.04
2019-02-27T16:31:58.407Z,43.27
2019-02-27T16:34:33.162Z,42.88
2019-02-27T16:37:04.515Z,43.93
2019-02-27T16:39:41.420Z,43.97
2019-02-27T16:42:11.516Z,44.21
2019-02-27T16:44:43.775Z,45.32
2019-02-27T16:47:19.912Z,45.42
2019-02-27T16:49:54.246Z,45.65
2019-02-27T16:52:27.718Z,46.05
2019-02-27T16:55:03.158Z,46.08
2019-02-27T16:57:35.066Z,45.32
2019-02-27T17:00:10.094Z,45.51
2019-02-27T17:02:44.255Z,47.01
2019-02-27T17:05:18.276Z,47.04
2019-02-27T17:07:51.449Z,47.12
2019-02-27T17:10:29.347Z,46.80
2019-02-27T17:13:02.871Z,46.80
2019-02-27T17:15:36.923Z,47.33
2019-02-27T17:18:08.306Z,47.16
2019-02-27T17:20:45.842Z,48.76
2019-02-27T17:23:14.776Z,48.33
2019-02-27T17:25:47.772Z,49.10
2019-02-27T17:28:19.736Z,48.82
2019-02-27T17:30:51.838Z,48.46
2019-02-27T17:33:23.830Z,49.08
2019-02-27T17:35:59.253Z,48.84
2019-02-27T17:38:30.704Z,49.39
2019-02-27T17:41:04.792Z,49.72
2019-02-27T17:43:37.102Z,49.94
2019-02-27T17:46:09.012Z,50.39
2019-02-27T17:48:43.315Z,50.40
2019-02-27T17:51:13.924Z,51.22
2019-02-27T17:53:46.977Z,50.68
2019-02-27T17:56:21.023Z,50.17
2019-02-27T17:58:52.968Z,49.36
2019-02-27T18:01:26.072Z,49.81
2019-02-27T18:04:01.709Z,49.26
2019-02-27T18:06:34.823Z,50.00
2019-02-27T18:09:10.197Z,50.17
2019-02-27T18:11:45.481Z,50.29
2019-02-27T18:14:20.241Z,50.23
2019-02-27T18:16:54.672Z,50.44
2019-02-27T18:19:26.011Z,50.62
2019-02-27T18:21:59.190Z,49.68
2019-02-27T18:24:34.185Z,51.06
2019-02-27T18:27:06.071Z,51.32
2019-02-27T18:29:38.310Z,51.20
2019-02-27T18:32:10.374Z,51.29
2019-02-27T18:34:44.159Z,52.09
2019-02-27T18:37:18.995Z,51.90
2019-02-27T18:39:52.276Z,52.15
2019-02-27T18:42:24.179Z,52.34
2019-02-27T18:44:57.021Z,52.72
2019-02-27T18:47:32.092Z,52.78
2019-02-27T18:50:03.279Z,53.17
2019-02-27T18:52:38.210Z,54.26
2019-02-27T18:55:11.051Z,53.01
2019-02-27T18:57:47.254Z,52.45
2019-02-27T19:00:22.000Z,52.15
2019-02-27T19:02:57.116Z,52.52
2019-02-27T19:05:30.626Z,52.94
2019-02-27T19:08:04.960Z,54.29
2019-02-27T19:10:41.423Z,53.89
2019-02-27T19:13:12.383Z,52.97
2019-02-27T19:15:46.281Z,53.15
2019-02-27T19:18:20.266Z,52.47
2019-02-27T19:20:53.339Z,52.54
2019-02-27T19:23:25.732Z,52.41
2019-02-27T19:26:00.020Z,52.69
2019-02-27T19:28:31.221Z,52.30
2019-02-27T19:31:05.453Z,52.83
2019-02-27T19:33:37.675Z,53.66
2019-02-27T19:36:18.958Z,53.41
2019-02-27T19:38:47.708Z,52.80
2019-02-27T19:41:19.437Z,53.27
2019-02-27T19:44:08.708Z,52.90
2019-02-27T19:46:42.332Z,52.49
2019-02-27T19:49:15.889Z,52.18
2019-02-27T19:51:52.152Z,51.64
2019-02-27T19:54:23.552Z,52.28
2019-02-27T19:56:59.006Z,53.22
2019-02-27T19:59:30.277Z,52.70
2019-02-27T20:02:02.345Z,53.39
2019-02-27T20:04:33.609Z,54.71
2019-02-27T20:07:06.998Z,55.07
2019-02-27T20:09:42.044Z,54.98
2019-02-27T20:12:15.907Z,54.38
2019-02-27T20:14:49.329Z,55.03
2019-02-27T20:17:22.468Z,54.89
2019-02-27T20:19:54.680Z,54.48
2019-02-27T20:22:26.626Z,55.04
2019-02-27T20:25:02.198Z,54.89
2019-02-27T20:27:33.690Z,54.59
2019-02-27T20:30:05.776Z,54.47
2019-02-27T20:32:40.261Z,54.08
2019-02-27T20:35:13.424Z,54.34
2019-02-27T20:37:45.687Z,54.46
2019-02-27T20:40:17.817Z,55.68
2019-02-27T20:42:54.431Z,55.42
2019-02-27T20:45:23.767Z,55.79
2019-02-27T20:48:01.900Z,55.79
2019-02-27T20:50:39.669Z,54.89
2019-02-27T20:53:13.613Z,56.85
2019-02-27T20:55:46.759Z,57.43
2019-02-27T20:58:22.032Z,57.20
2019-02-27T21:00:54.363Z,56.98
2019-02-27T21:03:28.060Z,56.72
2019-02-27T21:06:02.989Z,56.77
2019-02-27T21:08:37.183Z,56.66
2019-02-27T21:11:12.122Z,56.85
2019-02-27T21:13:49.331Z,56.70
2019-02-27T21:16:18.824Z,56.85
2019-02-27T21:18:52.938Z,56.87
2019-02-27T21:21:26.850Z,56.61
2019-02-27T21:23:58.862Z,57.23
2019-02-27T21:26:32.857Z,57.19
2019-02-27T21:29:08.786Z,57.32
2019-02-27T21:31:44.425Z,57.93
2019-02-27T21:34:20.111Z,57.66
2019-02-27T21:36:50.696Z,56.88
2019-02-27T21:39:25.236Z,58.08
2019-02-27T21:41:58.799Z,58.88
2019-02-27T21:44:34.331Z,58.98
2019-02-27T21:47:05.799Z,58.98
2019-02-27T21:49:39.866Z,58.80
2019-02-27T21:52:15.341Z,59.28
2019-02-27T21:54:47.823Z,60.01
2019-02-27T21:57:19.772Z,60.65
2019-02-27T21:59:51.962Z,60.79
2019-02-27T22:02:27.202Z,60.95
2019-02-27T22:04:57.958Z,61.82
2019-02-27T22:07:47.646Z,61.51
2019-02-27T22:10:32.461Z,62.08
2019-02-27T22:13:09.373Z,61.76
2019-02-27T22:15:41.902Z,61.74
2019-02-27T22:18:15.112Z,62.00
2019-02-27T22:20:49.715Z,61.90
2019-02-27T22:23:20.973Z,62.10
2019-02-27T22:25:52.299Z,61.98
2019-02-27T22:28:25.238Z,61.91
2019-02-27T22:30:58.950Z,62.42
2019-02-27T22:33:32.751Z,62.75
2019-02-27T22:36:06.088Z,62.39
2019-02-27T22:38:39.117Z,62.64
2019-02-27T22:41:12.128Z,62.87
2019-02-27T22:43:45.082Z,63.72
2019-02-27T22:46:18.025Z,63.92
2019-02-27T22:48:51.017Z,64.36
2019-02-27T22:51:22.975Z,64.66
2019-02-27T22:53:54.459Z,64.76
2019-02-27T22:56:27.957Z,65.55
2019-02-27T22:59:03.107Z,65.19
2019-02-27T23:01:43.486Z,65.01
2019-02-27T23:04:18.341Z,65.00
2019-02-27T23:06:51.470Z,64.63
2019-02-27T23:09:25.611Z,65.85
2019-02-27T23:11:57.024Z,65.47
2019-02-27T23:14:29.081Z,65.35
2019-02-27T23:17:03.028Z,65.11
2019-02-27T23:19:36.290Z,65.00
2019-02-27T23:22:10.548Z,65.04
2019-02-27T23:24:43.882Z,65.10
2019-02-27T23:27:15.306Z,65.61
2019-02-27T23:29:48.156Z,65.70
2019-02-27T23:32:21.164Z,66.10
2019-02-27T23:34:55.626Z,66.67
2019-02-27T23:37:29.569Z,66.28
2019-02-27T23:40:03.544Z,66.04
2019-02-27T23:42:37.835Z,66.77
2019-02-27T23:45:11.136Z,66.26
2019-02-27T23:47:45.274Z,65.58
2019-02-27T23:50:19.404Z,65.47
2019-02-27T23:52:53.233Z,66.14
2019-02-27T23:55:25.330Z,66.98
2019-02-27T23:57:59.352Z,66.32
